createdAt,value
2019-03-31T00:03:37.791Z,99.90
2019-03-31T00:06:20.061Z,99.90
2019-03-31T00:09:01.761Z,99.90
2019-03-31T00:11:32.298Z,99.90
2019-03-31T00:14:21.553Z,99.90
2019-03-31T00:17:11.134Z,99.90
2019-03-31T00:20:00.650Z,99.90
2019-03-31T00:22:49.985Z,99.90
2019-03-31T00:28:55.781Z,99.90
2019-03-31T00:31:45.707Z,99.90
2019-03-31T00:34:34.955Z,99.90
2019-03-31T00:37:24.162Z,99.90
2019-03-31T00:40:13.738Z,99.90
2019-03-31T00:43:15.007Z,99.90
2019-03-31T00:45:57.106Z,99.90
2019-03-31T00:48:38.724Z,99.90
2019-03-31T00:51:21.049Z,99.90
2019-03-31T00:54:02.650Z,99.90
2019-03-31T00:56:35.518Z,99.90
2019-03-31T00:59:23.971Z,99.90
2019-03-31T01:02:33.963Z,99.90
2019-03-31T01:05:23.297Z,99.90
2019-03-31T01:08:13.024Z,99.90
2019-03-31T01:11:23.220Z,99.90
2019-03-31T01:14:19.466Z,99.90
2019-03-31T01:20:25.399Z,99.90
2019-03-31T01:23:14.871Z,99.90
2019-03-31T01:26:04.452Z,99.90
2019-03-31T01:28:53.698Z,99.90
2019-03-31T01:31:50.062Z,99.90
2019-03-31T01:34:53.214Z,99.90
2019-03-31T01:37:34.784Z,99.90
2019-03-31T01:40:16.681Z,99.90
2019-03-31T01:42:47.356Z,99.90
2019-03-31T01:45:36.707Z,99.90
2019-03-31T01:48:26.011Z,99.90
2019-03-31T01:51:15.635Z,99.90
2019-03-31T01:54:05.519Z,99.90
2019-03-31T01:56:54.800Z,99.90
2019-03-31T01:59:44.110Z,99.90
2019-03-31T02:02:34.022Z,99.90
2019-03-31T02:05:23.274Z,99.90
2019-03-31T02:08:12.698Z,99.90
2019-03-31T02:11:02.483Z,99.90
2019-03-31T02:13:52.292Z,99.90
2019-03-31T02:16:41.602Z,99.90
2019-03-31T02:19:11.868Z,99.90
2019-03-31T02:22:01.147Z,99.90
2019-03-31T02:24:50.487Z,99.90
2019-03-31T02:30:46.391Z,99.90
2019-03-31T02:33:28.656Z,99.90
2019-03-31T02:36:10.215Z,99.90
2019-03-31T02:38:53.868Z,99.90
2019-03-31T02:41:35.352Z,99.90
2019-03-31T02:44:17.485Z,99.90
2019-03-31T02:46:59.049Z,99.90
2019-03-31T02:49:40.979Z,99.90
2019-03-31T02:52:11.538Z,99.90
2019-03-31T03:02:11.626Z,99.90
2019-03-31T03:05:21.443Z,99.90
2019-03-31T03:08:31.237Z,99.90
2019-03-31T03:11:21.110Z,99.90
2019-03-31T03:14:11.252Z,99.90
2019-03-31T03:17:00.504Z,99.90
2019-03-31T03:19:50.014Z,99.90
2019-03-31T03:22:39.386Z,99.90
2019-03-31T03:25:28.987Z,99.90
2019-03-31T03:28:10.385Z,99.90
2019-03-31T03:30:51.854Z,99.90
2019-03-31T03:33:22.369Z,99.90
2019-03-31T03:36:11.855Z,99.90
2019-03-31T03:41:50.914Z,99.90
2019-03-31T03:44:40.235Z,99.90
2019-03-31T03:47:29.539Z,99.90
2019-03-31T03:50:19.094Z,99.90
2019-03-31T03:53:08.699Z,99.90
2019-03-31T03:55:58.268Z,99.90
2019-03-31T03:58:28.906Z,99.90
2019-03-31T04:01:37.303Z,99.90
2019-03-31T04:04:26.588Z,99.90
2019-03-31T04:07:15.867Z,99.90
2019-03-31T04:13:39.887Z,99.90
2019-03-31T04:16:30.802Z,99.90
2019-03-31T04:19:20.353Z,99.90
2019-03-31T04:22:02.407Z,99.90
2019-03-31T04:24:44.431Z,99.90
2019-03-31T04:27:29.203Z,99.90
2019-03-31T04:30:10.588Z,99.90
2019-03-31T04:32:40.922Z,99.90
2019-03-31T04:35:30.186Z,99.90
2019-03-31T04:38:19.444Z,99.90
2019-03-31T04:40:49.995Z,99.90
2019-03-31T04:43:39.376Z,99.90
2019-03-31T04:46:10.078Z,99.90
2019-03-31T04:48:40.771Z,99.90
2019-03-31T04:54:22.253Z,99.90
2019-03-31T04:57:11.542Z,99.90
2019-03-31T04:59:41.795Z,99.90
2019-03-31T05:02:31.083Z,99.90
2019-03-31T05:05:20.262Z,99.90
2019-03-31T05:08:09.532Z,99.90
2019-03-31T05:10:58.959Z,99.90
2019-03-31T05:13:48.373Z,99.90
2019-03-31T05:16:30.792Z,99.90
2019-03-31T05:19:01.330Z,99.90
2019-03-31T05:21:50.959Z,99.90
2019-03-31T05:24:40.459Z,99.90
2019-03-31T05:27:30.212Z,99.90
2019-03-31T05:30:19.693Z,99.90
2019-03-31T05:33:09.019Z,99.90
2019-03-31T05:35:58.391Z,99.90
2019-03-31T05:38:28.731Z,99.90
2019-03-31T05:41:17.986Z,99.90
2019-03-31T05:43:48.738Z,99.90
2019-03-31T05:46:19.114Z,99.90
2019-03-31T05:49:08.376Z,99.90
2019-03-31T05:51:58.003Z,99.90
2019-03-31T05:54:47.254Z,99.90
2019-03-31T05:57:37.142Z,99.90
2019-03-31T06:00:47.271Z,99.90
2019-03-31T06:03:36.652Z,99.90
2019-03-31T06:06:25.986Z,99.90
2019-03-31T06:09:15.195Z,99.90
2019-03-31T06:11:56.993Z,99.90
2019-03-31T06:14:38.246Z,99.90
2019-03-31T06:17:20.482Z,99.90
2019-03-31T06:20:01.832Z,99.90
2019-03-31T06:22:43.095Z,99.90
2019-03-31T06:25:25.178Z,99.90
2019-03-31T06:28:07.246Z,99.90
2019-03-31T06:30:49.146Z,99.90
2019-03-31T06:33:31.261Z,99.90
2019-03-31T06:36:13.064Z,99.90
2019-03-31T06:38:58.451Z,99.90
2019-03-31T06:41:40.600Z,99.90
2019-03-31T06:44:22.794Z,99.90
2019-03-31T06:47:04.501Z,99.90
2019-03-31T06:49:34.755Z,99.90
2019-03-31T06:52:24.215Z,99.90
2019-03-31T06:55:13.475Z,99.90
2019-03-31T06:58:02.742Z,99.90
2019-03-31T07:00:52.019Z,99.90
2019-03-31T07:03:33.578Z,99.90
2019-03-31T07:06:15.575Z,99.90
2019-03-31T07:08:57.198Z,99.90
2019-03-31T07:11:39.255Z,99.90
2019-03-31T07:14:21.351Z,99.90
2019-03-31T07:17:03.360Z,99.90
2019-03-31T07:19:45.339Z,99.90
2019-03-31T07:22:26.751Z,99.90
2019-03-31T07:25:08.890Z,99.90
2019-03-31T07:27:53.874Z,99.90
2019-03-31T07:30:35.835Z,99.90
2019-03-31T07:33:17.488Z,99.90
2019-03-31T07:35:59.159Z,99.90
2019-03-31T07:38:41.357Z,99.90
2019-03-31T07:41:23.608Z,99.90
2019-03-31T07:44:05.748Z,99.90
2019-03-31T07:46:47.677Z,99.90
2019-03-31T07:49:29.438Z,99.90
2019-03-31T07:52:11.668Z,99.90
2019-03-31T07:54:53.011Z,99.90
2019-03-31T07:57:35.147Z,99.90
2019-03-31T08:00:17.184Z,99.90
2019-03-31T08:03:00.292Z,99.90
2019-03-31T08:05:41.929Z,99.90
2019-03-31T08:08:23.859Z,99.90
2019-03-31T08:11:05.135Z,99.90
2019-03-31T08:13:47.258Z,99.90
2019-03-31T08:16:28.466Z,99.90
2019-03-31T08:18:58.788Z,99.90
2019-03-31T08:21:29.165Z,99.90
2019-03-31T08:23:59.510Z,99.90
2019-03-31T08:26:30.493Z,99.90
2019-03-31T08:29:02.005Z,99.90
2019-03-31T08:31:32.254Z,99.90
2019-03-31T08:34:21.454Z,99.90
2019-03-31T08:37:10.766Z,99.90
2019-03-31T08:39:59.987Z,99.70
2019-03-31T08:42:49.271Z,99.00
2019-03-31T08:45:39.083Z,98.90
2019-03-31T08:48:28.342Z,98.40
2019-03-31T08:51:17.636Z,99.20
2019-03-31T08:54:07.083Z,98.90
2019-03-31T08:56:49.090Z,97.40
2019-03-31T08:59:30.405Z,97.30
2019-03-31T09:02:31.586Z,98.00
2019-03-31T09:05:13.583Z,97.80
2019-03-31T09:07:55.110Z,97.90
2019-03-31T09:10:36.858Z,97.50
2019-03-31T09:13:18.175Z,97.50
2019-03-31T09:15:59.744Z,96.60
2019-03-31T09:18:30.300Z,96.30
2019-03-31T09:21:19.758Z,94.80
2019-03-31T09:24:08.933Z,94.10
2019-03-31T09:26:58.125Z,93.70
2019-03-31T09:29:47.767Z,93.40
2019-03-31T09:32:36.986Z,91.80
2019-03-31T09:35:26.695Z,91.00
2019-03-31T09:38:15.904Z,90.50
2019-03-31T09:41:05.427Z,89.10
2019-03-31T09:47:02.967Z,87.10
2019-03-31T09:49:52.159Z,84.80
2019-03-31T09:52:34.051Z,84.40
2019-03-31T09:55:15.491Z,78.40
2019-03-31T09:57:46.078Z,77.00
2019-03-31T10:00:54.209Z,75.10
2019-03-31T10:03:43.639Z,71.40
2019-03-31T10:06:33.242Z,69.50
2019-03-31T10:09:22.488Z,67.20
2019-03-31T10:12:11.959Z,68.70
2019-03-31T10:15:01.494Z,69.30
2019-03-31T10:17:51.376Z,68.90
2019-03-31T10:20:40.614Z,66.40
2019-03-31T10:23:29.836Z,65.80
2019-03-31T10:29:33.539Z,65.30
2019-03-31T10:32:22.826Z,64.00
2019-03-31T10:35:12.075Z,63.20
2019-03-31T10:41:15.675Z,61.40
2019-03-31T10:44:04.970Z,60.10
2019-03-31T10:46:46.944Z,59.60
2019-03-31T10:49:28.207Z,59.20
2019-03-31T10:52:10.416Z,58.30
2019-03-31T10:54:51.883Z,58.00
2019-03-31T11:03:34.825Z,52.50
2019-03-31T11:06:16.532Z,53.90
2019-03-31T11:08:58.943Z,54.50
2019-03-31T11:15:12.535Z,54.00
2019-03-31T11:17:54.815Z,52.30
2019-03-31T11:20:36.147Z,53.40
2019-03-31T11:23:25.509Z,51.80
2019-03-31T11:26:15.022Z,49.90
2019-03-31T11:29:04.316Z,48.30
2019-03-31T11:31:53.994Z,48.30
2019-03-31T11:34:43.530Z,47.80
2019-03-31T11:37:32.739Z,46.60
2019-03-31T11:40:22.279Z,46.50
2019-03-31T11:43:11.577Z,45.60
2019-03-31T11:45:42.029Z,45.70
2019-03-31T11:48:12.943Z,44.60
2019-03-31T11:51:02.136Z,44.30
2019-03-31T11:53:51.680Z,44.10
2019-03-31T11:56:40.957Z,44.30
2019-03-31T11:59:11.250Z,44.30
2019-03-31T12:01:41.888Z,44.00
2019-03-31T12:04:12.351Z,43.00
2019-03-31T12:06:43.407Z,41.60
2019-03-31T12:09:32.868Z,41.40
2019-03-31T12:12:22.240Z,41.30
2019-03-31T12:15:11.857Z,40.40
2019-03-31T12:21:15.502Z,42.70
2019-03-31T12:24:05.154Z,42.40
2019-03-31T12:26:54.699Z,40.10
2019-03-31T12:29:43.923Z,39.70
2019-03-31T12:32:33.142Z,39.40
2019-03-31T12:35:22.371Z,39.60
2019-03-31T12:38:11.923Z,39.40
2019-03-31T12:40:42.903Z,39.30
2019-03-31T12:43:32.474Z,38.40
2019-03-31T12:46:21.968Z,38.50
2019-03-31T12:49:12.247Z,38.50
2019-03-31T12:52:01.732Z,40.70
2019-03-31T12:54:51.190Z,39.60
2019-03-31T12:57:40.369Z,39.40
2019-03-31T13:00:29.649Z,38.60
2019-03-31T13:03:00.208Z,39.20
2019-03-31T13:08:38.847Z,37.60
2019-03-31T13:11:28.001Z,37.20
2019-03-31T13:14:17.369Z,36.90
2019-03-31T13:17:06.545Z,38.00
2019-03-31T13:19:56.002Z,38.10
2019-03-31T13:22:45.995Z,38.40
2019-03-31T13:25:55.638Z,36.70
2019-03-31T13:28:45.114Z,36.20
2019-03-31T13:31:27.387Z,36.30
2019-03-31T13:34:09.910Z,37.00
2019-03-31T13:36:51.762Z,36.70
2019-03-31T13:39:33.126Z,36.30
2019-03-31T13:42:15.139Z,36.30
2019-03-31T13:44:56.411Z,35.80
2019-03-31T13:47:26.790Z,36.40
2019-03-31T13:50:36.847Z,37.30
2019-03-31T13:56:34.973Z,35.20
2019-03-31T13:59:44.679Z,35.40
2019-03-31T14:08:57.018Z,38.00
2019-03-31T14:11:48.504Z,36.60
2019-03-31T14:14:56.791Z,35.60
2019-03-31T14:17:45.963Z,35.20
2019-03-31T14:20:35.290Z,35.00
2019-03-31T14:23:24.558Z,34.70
2019-03-31T14:26:06.159Z,35.10
2019-03-31T14:28:48.206Z,34.90
2019-03-31T14:31:29.729Z,35.40
2019-03-31T14:34:00.166Z,34.70
2019-03-31T14:36:49.383Z,33.50
2019-03-31T14:42:27.142Z,33.80
2019-03-31T14:45:28.714Z,33.20
2019-03-31T14:48:18.015Z,34.60
2019-03-31T14:50:48.559Z,36.40
2019-03-31T14:53:38.011Z,38.90
2019-03-31T14:56:08.294Z,40.80
2019-03-31T14:58:57.469Z,42.00
2019-03-31T15:01:46.683Z,42.00
2019-03-31T15:04:36.219Z,42.00
2019-03-31T15:07:06.970Z,42.60
2019-03-31T15:09:56.183Z,42.80
2019-03-31T15:12:45.384Z,42.30
2019-03-31T15:15:34.954Z,41.80
2019-03-31T15:18:24.171Z,42.10
2019-03-31T15:21:05.974Z,42.60
2019-03-31T15:23:47.915Z,41.70
2019-03-31T15:26:18.439Z,40.10
2019-03-31T15:29:07.646Z,40.00
2019-03-31T15:31:56.901Z,40.10
2019-03-31T15:34:46.110Z,40.90
2019-03-31T15:37:35.941Z,40.70
2019-03-31T15:40:25.422Z,39.00
2019-03-31T15:42:56.218Z,39.00
2019-03-31T15:45:26.618Z,39.40
2019-03-31T15:47:57.152Z,39.20
2019-03-31T15:50:27.618Z,39.00
2019-03-31T15:53:16.903Z,39.20
2019-03-31T15:56:06.162Z,39.10
2019-03-31T15:58:55.576Z,39.50
2019-03-31T16:01:44.938Z,39.40
2019-03-31T16:04:15.240Z,39.50
2019-03-31T16:07:04.576Z,39.50
2019-03-31T16:13:01.864Z,39.20
2019-03-31T16:15:43.241Z,39.90
2019-03-31T16:18:25.171Z,40.00
2019-03-31T16:20:55.330Z,40.60
2019-03-31T16:23:25.122Z,40.10
2019-03-31T16:26:14.123Z,40.00
2019-03-31T16:29:03.087Z,40.40
2019-03-31T16:35:05.519Z,41.70
2019-03-31T16:37:54.535Z,42.50
2019-03-31T16:40:43.610Z,42.80
2019-03-31T16:43:32.598Z,43.30
2019-03-31T16:46:02.401Z,43.50
2019-03-31T16:48:51.525Z,43.80
2019-03-31T16:51:40.544Z,44.30
2019-03-31T16:54:29.763Z,44.60
2019-03-31T16:57:18.782Z,45.10
2019-03-31T17:00:08.057Z,45.20
2019-03-31T17:02:57.333Z,45.50
2019-03-31T17:05:46.353Z,45.90
2019-03-31T17:08:35.287Z,46.10
2019-03-31T17:11:16.548Z,46.50
2019-03-31T17:13:58.653Z,46.80
2019-03-31T17:16:40.059Z,47.00
2019-03-31T17:19:21.730Z,47.20
2019-03-31T17:22:03.663Z,47.30
2019-03-31T17:24:45.121Z,47.50
2019-03-31T17:27:27.062Z,47.80
2019-03-31T17:30:08.940Z,47.90
2019-03-31T17:32:50.528Z,48.20
2019-03-31T17:35:20.404Z,48.70
2019-03-31T17:38:09.415Z,49.20
2019-03-31T17:40:58.347Z,49.20
2019-03-31T17:43:47.282Z,49.20
2019-03-31T17:46:36.451Z,49.20
2019-03-31T17:49:25.735Z,49.50
2019-03-31T17:52:14.908Z,49.90
2019-03-31T17:54:44.966Z,49.80
2019-03-31T17:57:34.023Z,49.90
2019-03-31T18:00:23.069Z,50.10
2019-03-31T18:03:15.366Z,50.50
2019-03-31T18:06:15.274Z,50.70
2019-03-31T18:08:57.160Z,51.20
2019-03-31T18:11:39.350Z,51.40
2019-03-31T18:14:20.591Z,51.60
2019-03-31T18:17:02.729Z,51.70
2019-03-31T18:19:32.615Z,52.30
2019-03-31T18:22:21.960Z,52.20
2019-03-31T18:25:11.243Z,52.50
2019-03-31T18:28:00.330Z,52.50
2019-03-31T18:30:49.589Z,52.80
2019-03-31T18:33:38.782Z,53.40
2019-03-31T18:36:36.503Z,53.50
2019-03-31T18:39:37.488Z,53.60
2019-03-31T18:42:26.398Z,54.10
2019-03-31T18:45:15.418Z,54.10
2019-03-31T18:48:04.406Z,53.90
2019-03-31T18:54:26.338Z,55.00
2019-03-31T18:57:34.559Z,55.10
2019-03-31T19:00:42.583Z,55.00
2019-03-31T19:03:50.559Z,54.90
2019-03-31T19:06:58.643Z,55.10
2019-03-31T19:13:27.810Z,55.70
2019-03-31T19:16:35.806Z,55.90
2019-03-31T19:19:43.769Z,56.20
2019-03-31T19:22:51.804Z,56.50
2019-03-31T19:28:37.062Z,56.80
2019-03-31T19:31:26.231Z,55.90
2019-03-31T19:34:34.277Z,55.90
2019-03-31T19:37:32.461Z,55.90
2019-03-31T19:40:21.246Z,55.60
2019-03-31T19:43:29.383Z,55.70
2019-03-31T19:46:24.856Z,55.30
2019-03-31T19:49:32.907Z,55.30
2019-03-31T19:52:29.370Z,55.50
2019-03-31T19:55:37.769Z,55.80
2019-03-31T19:58:46.350Z,55.80
2019-03-31T20:04:50.367Z,56.20
2019-03-31T20:07:58.811Z,56.70
2019-03-31T20:10:56.411Z,57.10
2019-03-31T20:14:04.426Z,56.30
2019-03-31T20:17:12.482Z,56.80
2019-03-31T20:20:01.440Z,57.40
2019-03-31T20:23:09.488Z,57.60
2019-03-31T20:25:58.892Z,57.80
2019-03-31T20:29:02.892Z,58.20
2019-03-31T20:31:52.168Z,58.50
2019-03-31T20:34:41.084Z,59.10
2019-03-31T20:37:51.112Z,59.40
2019-03-31T20:40:46.631Z,59.70
2019-03-31T20:43:55.041Z,60.00
2019-03-31T20:46:25.099Z,61.00
2019-03-31T20:49:14.422Z,61.50
2019-03-31T20:51:56.450Z,62.20
2019-03-31T20:54:38.391Z,62.50
2019-03-31T20:57:20.299Z,62.40
2019-03-31T21:00:01.916Z,62.60
2019-03-31T21:02:34.971Z,62.70
2019-03-31T21:08:39.623Z,63.50
2019-03-31T21:11:36.543Z,64.00
2019-03-31T21:20:56.182Z,66.00
2019-03-31T21:23:45.362Z,66.80
2019-03-31T21:26:46.988Z,66.80
2019-03-31T21:30:05.054Z,67.30
2019-03-31T21:33:07.935Z,68.00
2019-03-31T21:36:04.102Z,68.60
2019-03-31T21:39:12.283Z,69.60
2019-03-31T21:42:01.179Z,69.80
2019-03-31T21:44:31.251Z,69.90
2019-03-31T21:47:13.162Z,70.50
2019-03-31T21:49:43.371Z,70.90
2019-03-31T21:55:40.759Z,71.90
2019-03-31T21:58:29.748Z,72.10
2019-03-31T22:04:34.144Z,73.40
2019-03-31T22:07:23.262Z,74.00
2019-03-31T22:10:15.463Z,74.10
2019-03-31T22:13:04.823Z,74.40
2019-03-31T22:15:54.074Z,75.40
2019-03-31T22:18:43.707Z,76.30
2019-03-31T22:21:51.840Z,76.70
2019-03-31T22:24:41.547Z,77.50
2019-03-31T22:27:30.712Z,78.20
2019-03-31T22:30:20.063Z,78.70
2019-03-31T22:33:11.189Z,79.00
2019-03-31T22:36:19.243Z,79.90
2019-03-31T22:39:08.312Z,80.50
2019-03-31T22:41:50.515Z,80.00
2019-03-31T22:44:33.293Z,80.70
2019-03-31T22:47:17.255Z,83.50
2019-03-31T22:49:58.966Z,85.30
2019-03-31T22:52:40.971Z,86.90
2019-03-31T22:55:22.762Z,87.40
2019-03-31T22:57:54.335Z,89.80
2019-03-31T23:00:45.518Z,91.40
2019-03-31T23:03:34.571Z,92.30
2019-03-31T23:06:23.735Z,94.60
2019-03-31T23:09:12.948Z,95.20
2019-03-31T23:12:01.917Z,97.30
2019-03-31T23:14:31.675Z,99.40
2019-03-31T23:17:01.562Z,99.90
2019-03-31T23:22:39.024Z,99.90
2019-03-31T23:25:28.478Z,99.90
2019-03-31T23:28:46.294Z,99.90
2019-03-31T23:31:35.249Z,99.90
2019-03-31T23:34:24.196Z,99.90
2019-03-31T23:37:06.071Z,99.90
2019-03-31T23:39:48.799Z,99.90
2019-03-31T23:42:30.054Z,99.90
2019-03-31T23:45:16.508Z,99.90
2019-03-31T23:48:05.889Z,99.90
2019-03-31T23:54:08.715Z,99.90
2019-03-31T23:56:58.269Z,99.90
